sensor_id;sensor_type;location;lat;lon;timestamp;pressure;altitude;pressure_sealevel;temperature;humidity
17607;BME280;69222;52.242;20.980;2023-05-10T00:01:20;100947.22;;;11.47;35.82
17607;BME280;69222;52.242;20.980;2023-05-10T00:03:47;100954.09;;;11.42;35.87
17607;BME280;69222;52.242;20.980;2023-05-10T00:06:16;100949.81;;;11.38;35.57
17607;BME280;69222;52.242;20.980;2023-05-10T00:08:45;100936.06;;;11.34;35.74
17607;BME280;69222;52.242;20.980;2023-05-10T00:11:13;100940.31;;;11.34;35.83
17607;BME280;69222;52.242;20.980;2023-05-10T00:13:40;100936.03;;;11.33;35.99
17607;BME280;69222;52.242;20.980;2023-05-10T00:16:08;100934.34;;;11.30;36.16
17607;BME280;69222;52.242;20.980;2023-05-10T00:18:37;100935.19;;;11.31;36.18
17607;BME280;69222;52.242;20.980;2023-05-10T00:21:05;100939.47;;;11.32;36.46
17607;BME280;69222;52.242;20.980;2023-05-10T00:23:33;100927.44;;;11.26;36.16
17607;BME280;69222;52.242;20.980;2023-05-10T00:26:01;100930.03;;;11.25;36.06
17607;BME280;69222;52.242;20.980;2023-05-10T00:28:29;100936.03;;;11.19;36.19
17607;BME280;69222;52.242;20.980;2023-05-10T00:30:57;100923.16;;;11.08;36.15
17607;BME280;69222;52.242;20.980;2023-05-10T00:33:25;100925.72;;;11.07;36.41
17607;BME280;69222;52.242;20.980;2023-05-10T00:35:54;100920.56;;;11.04;36.44
17607;BME280;69222;52.242;20.980;2023-05-10T00:38:22;100915.41;;;11.04;36.77
17607;BME280;69222;52.242;20.980;2023-05-10T00:40:51;100922.28;;;11.03;35.99
17607;BME280;69222;52.242;20.980;2023-05-10T00:43:19;100919.69;;;10.99;36.25
17607;BME280;69222;52.242;20.980;2023-05-10T00:45:47;100914.56;;;10.97;36.23
17607;BME280;69222;52.242;20.980;2023-05-10T00:48:15;100914.56;;;10.97;35.92
17607;BME280;69222;52.242;20.980;2023-05-10T00:50:42;100915.41;;;10.95;36.42
17607;BME280;69222;52.242;20.980;2023-05-10T00:53:12;100912.81;;;10.96;36.44
17607;BME280;69222;52.242;20.980;2023-05-10T00:55:40;100917.97;;;10.93;36.42
17607;BME280;69222;52.242;20.980;2023-05-10T00:58:09;100916.25;;;10.89;36.53
17607;BME280;69222;52.242;20.980;2023-05-10T01:00:37;100918.81;;;10.86;36.27
17607;BME280;69222;52.242;20.980;2023-05-10T01:03:05;100912.81;;;10.85;35.93
17607;BME280;69222;52.242;20.980;2023-05-10T01:05:33;100911.09;;;10.83;36.52
17607;BME280;69222;52.242;20.980;2023-05-10T01:08:01;100912.81;;;10.84;36.01
17607;BME280;69222;52.242;20.980;2023-05-10T01:10:31;100911.94;;;10.82;36.42
17607;BME280;69222;52.242;20.980;2023-05-10T01:12:59;100902.50;;;10.81;35.73
17607;BME280;69222;52.242;20.980;2023-05-10T01:15:27;100904.19;;;10.77;35.93
17607;BME280;69222;52.242;20.980;2023-05-10T01:17:55;100908.50;;;10.72;36.32
17607;BME280;69222;52.242;20.980;2023-05-10T01:20:24;100905.06;;;10.72;35.77
17607;BME280;69222;52.242;20.980;2023-05-10T01:23:12;100899.91;;;10.69;36.27
17607;BME280;69222;52.242;20.980;2023-05-10T01:28:57;100900.75;;;10.64;35.85
17607;BME280;69222;52.242;20.980;2023-05-10T01:31:38;100905.91;;;10.61;35.92
17607;BME280;69222;52.242;20.980;2023-05-10T01:34:16;100901.59;;;10.56;36.58
17607;BME280;69222;52.242;20.980;2023-05-10T01:36:49;100902.47;;;10.53;36.86
17607;BME280;69222;52.242;20.980;2023-05-10T01:39:24;100909.31;;;10.51;36.52
17607;BME280;69222;52.242;20.980;2023-05-10T01:41:57;100900.69;;;10.45;36.42
17607;BME280;69222;52.242;20.980;2023-05-10T01:44:32;100897.28;;;10.43;36.56
17607;BME280;69222;52.242;20.980;2023-05-10T01:47:05;100900.69;;;10.38;36.93
17607;BME280;69222;52.242;20.980;2023-05-10T01:49:40;100894.66;;;10.36;37.25
17607;BME280;69222;52.242;20.980;2023-05-10T01:52:12;100892.09;;;10.35;36.44
17607;BME280;69222;52.242;20.980;2023-05-10T01:54:44;100894.63;;;10.30;36.80
17607;BME280;69222;52.242;20.980;2023-05-10T01:57:15;100890.34;;;10.28;37.10
17607;BME280;69222;52.242;20.980;2023-05-10T01:59:45;100889.50;;;10.27;37.37
17607;BME280;69222;52.242;20.980;2023-05-10T02:02:17;100886.91;;;10.26;37.18
17607;BME280;69222;52.242;20.980;2023-05-10T02:04:49;100884.28;;;10.23;37.61
17607;BME280;69222;52.242;20.980;2023-05-10T02:07:19;100877.41;;;10.23;37.29
17607;BME280;69222;52.242;20.980;2023-05-10T02:09:48;100879.13;;;10.21;37.63
17607;BME280;69222;52.242;20.980;2023-05-10T02:12:16;100877.41;;;10.17;37.72
17607;BME280;69222;52.242;20.980;2023-05-10T02:14:46;100877.38;;;10.15;37.30
17607;BME280;69222;52.242;20.980;2023-05-10T02:17:16;100885.09;;;10.12;37.60
17607;BME280;69222;52.242;20.980;2023-05-10T02:19:44;100881.66;;;10.10;38.07
17607;BME280;69222;52.242;20.980;2023-05-10T02:22:16;100880.81;;;10.10;38.40
17607;BME280;69222;52.242;20.980;2023-05-10T02:24:46;100876.50;;;10.07;38.22
17607;BME280;69222;52.242;20.980;2023-05-10T02:27:15;100879.09;;;10.07;38.49
17607;BME280;69222;52.242;20.980;2023-05-10T02:29:45;100870.50;;;10.05;38.46
17607;BME280;69222;52.242;20.980;2023-05-10T02:32:14;100877.34;;;10.00;39.07
17607;BME280;69222;52.242;20.980;2023-05-10T02:34:45;100878.19;;;9.95;38.95
17607;BME280;69222;52.242;20.980;2023-05-10T02:37:20;100881.59;;;9.92;39.18
17607;BME280;69222;52.242;20.980;2023-05-10T02:39:50;100867.84;;;9.84;39.17
17607;BME280;69222;52.242;20.980;2023-05-10T02:42:23;100891.84;;;9.80;39.25
17607;BME280;69222;52.242;20.980;2023-05-10T02:44:54;100882.38;;;9.77;39.20
17607;BME280;69222;52.242;20.980;2023-05-10T02:47:24;100877.22;;;9.74;39.17
17607;BME280;69222;52.242;20.980;2023-05-10T02:49:52;100878.06;;;9.73;39.50
17607;BME280;69222;52.242;20.980;2023-05-10T02:52:24;100890.06;;;9.70;39.05
17607;BME280;69222;52.242;20.980;2023-05-10T02:54:55;100881.47;;;9.71;40.18
17607;BME280;69222;52.242;20.980;2023-05-10T02:57:28;100878.88;;;9.67;39.15
17607;BME280;69222;52.242;20.980;2023-05-10T02:59:57;100890.06;;;9.70;39.00
17607;BME280;69222;52.242;20.980;2023-05-10T03:02:26;100882.31;;;9.66;39.78
17607;BME280;69222;52.242;20.980;2023-05-10T03:04:54;100886.59;;;9.64;39.43
17607;BME280;69222;52.242;20.980;2023-05-10T03:07:24;100879.72;;;9.59;39.86
17607;BME280;69222;52.242;20.980;2023-05-10T03:09:52;100896.84;;;9.54;40.04
17607;BME280;69222;52.242;20.980;2023-05-10T03:12:27;100890.81;;;9.52;40.31
17607;BME280;69222;52.242;20.980;2023-05-10T03:15:03;100887.34;;;9.50;40.39
17607;BME280;69222;52.242;20.980;2023-05-10T03:17:40;100886.47;;;9.43;40.58
17607;BME280;69222;52.242;20.980;2023-05-10T03:20:10;100885.59;;;9.42;40.18
17607;BME280;69222;52.242;20.980;2023-05-10T03:22:45;100889.03;;;9.41;40.56
17607;BME280;69222;52.242;20.980;2023-05-10T03:25:16;100876.16;;;9.40;40.41
17607;BME280;69222;52.242;20.980;2023-05-10T03:27:45;100881.31;;;9.46;40.15
17607;BME280;69222;52.242;20.980;2023-05-10T03:30:13;100885.66;;;9.47;41.11
17607;BME280;69222;52.242;20.980;2023-05-10T03:32:42;100891.66;;;9.52;40.43
17607;BME280;69222;52.242;20.980;2023-05-10T03:35:11;100879.66;;;9.51;40.80
17607;BME280;69222;52.242;20.980;2023-05-10T03:37:41;100888.25;;;9.50;39.82
17607;BME280;69222;52.242;20.980;2023-05-10T03:40:09;100883.09;;;9.50;40.62
17607;BME280;69222;52.242;20.980;2023-05-10T03:42:37;100889.13;;;9.54;40.28
17607;BME280;69222;52.242;20.980;2023-05-10T03:45:06;100884.84;;;9.54;40.46
17607;BME280;69222;52.242;20.980;2023-05-10T03:47:34;100886.53;;;9.55;40.28
17607;BME280;69222;52.242;20.980;2023-05-10T03:50:02;100883.16;;;9.62;39.92
17607;BME280;69222;52.242;20.980;2023-05-10T03:52:30;100888.31;;;9.64;40.13
17607;BME280;69222;52.242;20.980;2023-05-10T03:54:59;100884.03;;;9.66;40.29
17607;BME280;69222;52.242;20.980;2023-05-10T03:57:29;100877.19;;;9.65;39.90
17607;BME280;69222;52.242;20.980;2023-05-10T03:59:58;100879.72;;;9.63;40.54
17607;BME280;69222;52.242;20.980;2023-05-10T04:02:27;100880.59;;;9.64;40.35
17607;BME280;69222;52.242;20.980;2023-05-10T04:04:56;100884.91;;;9.66;39.96
17607;BME280;69222;52.242;20.980;2023-05-10T04:07:24;100882.31;;;9.66;40.39
17607;BME280;69222;52.242;20.980;2023-05-10T04:09:52;100881.50;;;9.72;40.04
17607;BME280;69222;52.242;20.980;2023-05-10T04:12:21;100881.53;;;9.77;40.37
17607;BME280;69222;52.242;20.980;2023-05-10T04:14:49;100879.00;;;9.84;39.77
17607;BME280;69222;52.242;20.980;2023-05-10T04:17:17;100878.13;;;9.90;40.40
17607;BME280;69222;52.242;20.980;2023-05-10T04:19:45;100886.78;;;9.98;39.98
17607;BME280;69222;52.242;20.980;2023-05-10T04:22:13;100884.19;;;10.01;39.49
17607;BME280;69222;52.242;20.980;2023-05-10T04:24:41;100887.66;;;10.03;40.22
17607;BME280;69222;52.242;20.980;2023-05-10T04:27:09;100886.81;;;10.10;39.71
17607;BME280;69222;52.242;20.980;2023-05-10T04:29:40;100890.28;;;10.19;40.41
17607;BME280;69222;52.242;20.980;2023-05-10T04:32:08;100890.34;;;10.26;39.34
17607;BME280;69222;52.242;20.980;2023-05-10T04:34:36;100892.06;;;10.29;39.82
17607;BME280;69222;52.242;20.980;2023-05-10T04:37:04;100894.66;;;10.27;39.36
17607;BME280;69222;52.242;20.980;2023-05-10T04:39:34;100888.59;;;10.24;40.33
17607;BME280;69222;52.242;20.980;2023-05-10T04:42:02;100895.47;;;10.25;39.88
17607;BME280;69222;52.242;20.980;2023-05-10T04:44:32;100895.50;;;10.34;40.10
17607;BME280;69222;52.242;20.980;2023-05-10T04:47:01;100895.56;;;10.46;39.77
17607;BME280;69222;52.242;20.980;2023-05-10T04:49:29;100890.44;;;10.61;39.11
17607;BME280;69222;52.242;20.980;2023-05-10T04:51:57;100890.47;;;10.80;38.90
17607;BME280;69222;52.242;20.980;2023-05-10T04:54:25;100898.19;;;11.04;38.79
17607;BME280;69222;52.242;20.980;2023-05-10T04:56:53;100890.47;;;11.24;38.39
17607;BME280;69222;52.242;20.980;2023-05-10T04:59:21;100894.75;;;11.44;38.14
17607;BME280;69222;52.242;20.980;2023-05-10T05:01:49;100892.13;;;11.71;38.06
17607;BME280;69222;52.242;20.980;2023-05-10T05:04:18;100890.31;;;12.05;36.97
17607;BME280;69222;52.242;20.980;2023-05-10T05:06:46;100883.97;;;12.65;36.18
17607;BME280;69222;52.242;20.980;2023-05-10T05:09:16;100888.53;;;13.43;34.84
17607;BME280;69222;52.242;20.980;2023-05-10T05:11:44;100883.41;;;14.14;33.03
17607;BME280;69222;52.242;20.980;2023-05-10T05:14:12;100887.31;;;14.45;32.38
17607;BME280;69222;52.242;20.980;2023-05-10T05:16:40;100880.19;;;14.63;32.36
17607;BME280;69222;52.242;20.980;2023-05-10T05:19:08;100887.84;;;14.70;32.25
17607;BME280;69222;52.242;20.980;2023-05-10T05:21:37;100885.34;;;14.64;32.40
17607;BME280;69222;52.242;20.980;2023-05-10T05:24:06;100877.88;;;14.41;32.52
17607;BME280;69222;52.242;20.980;2023-05-10T05:26:34;100883.38;;;14.17;33.19
17607;BME280;69222;52.242;20.980;2023-05-10T05:29:02;100875.72;;;14.06;33.40
17607;BME280;69222;52.242;20.980;2023-05-10T05:31:30;100888.66;;;14.11;33.62
17607;BME280;69222;52.242;20.980;2023-05-10T05:33:58;100882.66;;;14.07;33.39
17607;BME280;69222;52.242;20.980;2023-05-10T05:36:26;100875.81;;;13.98;33.50
17607;BME280;69222;52.242;20.980;2023-05-10T05:38:55;100887.22;;;13.85;33.72
17607;BME280;69222;52.242;20.980;2023-05-10T05:41:23;100881.84;;;13.99;33.93
17607;BME280;69222;52.242;20.980;2023-05-10T05:43:51;100892.97;;;14.10;33.19
17607;BME280;69222;52.242;20.980;2023-05-10T05:46:19;100884.28;;;14.13;33.30
17607;BME280;69222;52.242;20.980;2023-05-10T05:48:47;100880.63;;;14.29;32.71
17607;BME280;69222;52.242;20.980;2023-05-10T05:51:15;100890.72;;;14.49;32.84
17607;BME280;69222;52.242;20.980;2023-05-10T05:53:43;100887.13;;;14.62;32.34
17607;BME280;69222;52.242;20.980;2023-05-10T05:56:13;100885.34;;;14.64;32.61
17607;BME280;69222;52.242;20.980;2023-05-10T05:58:41;100894.00;;;14.63;32.42
17607;BME280;69222;52.242;20.980;2023-05-10T06:01:09;100890.53;;;14.66;32.46
17607;BME280;69222;52.242;20.980;2023-05-10T06:03:37;100894.81;;;14.65;32.29
17607;BME280;69222;52.242;20.980;2023-05-10T06:06:05;100893.06;;;14.67;32.64
17607;BME280;69222;52.242;20.980;2023-05-10T06:08:33;100896.22;;;14.89;32.69
17607;BME280;69222;52.242;20.980;2023-05-10T06:11:01;100895.88;;;15.11;32.59
17607;BME280;69222;52.242;20.980;2023-05-10T06:13:32;100893.81;;;15.30;32.42
17607;BME280;69222;52.242;20.980;2023-05-10T06:16:02;100896.94;;;15.49;32.26
17607;BME280;69222;52.242;20.980;2023-05-10T06:18:30;100898.44;;;15.62;31.79
17607;BME280;69222;52.242;20.980;2023-05-10T06:20:58;100899.97;;;15.72;31.28
17607;BME280;69222;52.242;20.980;2023-05-10T06:23:26;100888.59;;;15.79;31.33
17607;BME280;69222;52.242;20.980;2023-05-10T06:25:54;100882.44;;;15.85;31.02
17607;BME280;69222;52.242;20.980;2023-05-10T06:28:22;100890.00;;;15.96;31.32
17607;BME280;69222;52.242;20.980;2023-05-10T06:30:52;100887.16;;;16.08;30.97
17607;BME280;69222;52.242;20.980;2023-05-10T06:33:19;100890.44;;;16.17;31.05
17607;BME280;69222;52.242;20.980;2023-05-10T06:35:47;100886.53;;;16.37;30.98
17607;BME280;69222;52.242;20.980;2023-05-10T06:38:15;100890.84;;;16.38;30.50
17607;BME280;69222;52.242;20.980;2023-05-10T06:40:43;100885.63;;;16.39;30.86
17607;BME280;69222;52.242;20.980;2023-05-10T06:43:11;100881.94;;;16.48;30.52
17607;BME280;69222;52.242;20.980;2023-05-10T06:45:39;100884.78;;;16.37;30.35
17607;BME280;69222;52.242;20.980;2023-05-10T06:48:09;100876.34;;;16.26;30.56
17607;BME280;69222;52.242;20.980;2023-05-10T06:50:38;100896.47;;;16.18;30.72
17607;BME280;69222;52.242;20.980;2023-05-10T06:53:06;100873.63;;;16.32;31.02
17607;BME280;69222;52.242;20.980;2023-05-10T06:55:34;100884.09;;;16.68;31.10
17607;BME280;69222;52.242;20.980;2023-05-10T06:58:01;100876.63;;;16.92;30.19
17607;BME280;69222;52.242;20.980;2023-05-10T07:00:29;100876.94;;;17.13;30.18
17607;BME280;69222;52.242;20.980;2023-05-10T07:02:58;100872.19;;;17.29;29.05
17607;BME280;69222;52.242;20.980;2023-05-10T07:05:27;100875.63;;;17.31;28.76
17607;BME280;69222;52.242;20.980;2023-05-10T07:07:56;100879.72;;;17.42;28.77
17607;BME280;69222;52.242;20.980;2023-05-10T07:10:24;100873.09;;;17.61;28.94
17607;BME280;69222;52.242;20.980;2023-05-10T07:12:52;100872.47;;;17.84;28.63
17607;BME280;69222;52.242;20.980;2023-05-10T07:15:22;100879.53;;;18.12;27.86
17607;BME280;69222;52.242;20.980;2023-05-10T07:17:50;100869.66;;;18.21;26.79
17607;BME280;69222;52.242;20.980;2023-05-10T07:20:19;100861.88;;;18.20;26.36
17607;BME280;69222;52.242;20.980;2023-05-10T07:22:48;100862.59;;;18.25;26.92
17607;BME280;69222;52.242;20.980;2023-05-10T07:25:16;100868.34;;;18.36;26.36
17607;BME280;69222;52.242;20.980;2023-05-10T07:27:45;100861.59;;;18.29;25.30
17607;BME280;69222;52.242;20.980;2023-05-10T07:30:15;100862.66;;;18.23;25.35
17607;BME280;69222;52.242;20.980;2023-05-10T07:32:46;100867.38;;;18.10;24.95
17607;BME280;69222;52.242;20.980;2023-05-10T07:35:14;100873.41;;;17.81;25.26
17607;BME280;69222;52.242;20.980;2023-05-10T07:37:45;100883.38;;;17.66;25.45
17607;BME280;69222;52.242;20.980;2023-05-10T07:40:14;100874.63;;;17.68;25.34
17607;BME280;69222;52.242;20.980;2023-05-10T07:42:44;100868.19;;;17.83;25.01
17607;BME280;69222;52.242;20.980;2023-05-10T07:45:12;100870.75;;;18.14;24.67
17607;BME280;69222;52.242;20.980;2023-05-10T07:47:41;100863.69;;;18.46;24.64
17607;BME280;69222;52.242;20.980;2023-05-10T07:50:09;100843.78;;;18.70;23.65
17607;BME280;69222;52.242;20.980;2023-05-10T07:52:37;100868.44;;;18.89;23.21
17607;BME280;69222;52.242;20.980;2023-05-10T07:55:06;100869.19;;;19.19;22.16
17607;BME280;69222;52.242;20.980;2023-05-10T07:57:35;100859.47;;;19.23;22.00
17607;BME280;69222;52.242;20.980;2023-05-10T08:00:04;100857.63;;;19.26;21.39
17607;BME280;69222;52.242;20.980;2023-05-10T08:02:33;100863.22;;;18.61;21.82
17607;BME280;69222;52.242;20.980;2023-05-10T08:05:02;100855.00;;;18.73;21.87
17607;BME280;69222;52.242;20.980;2023-05-10T08:07:30;100849.41;;;19.11;21.97
17607;BME280;69222;52.242;20.980;2023-05-10T08:09:58;100858.47;;;19.52;21.25
17607;BME280;69222;52.242;20.980;2023-05-10T08:12:26;100860.09;;;19.54;21.00
17607;BME280;69222;52.242;20.980;2023-05-10T08:14:55;100847.47;;;19.67;20.29
17607;BME280;69222;52.242;20.980;2023-05-10T08:17:23;100856.97;;;20.62;19.35
17607;BME280;69222;52.242;20.980;2023-05-10T08:19:52;100847.31;;;21.05;19.29
17607;BME280;69222;52.242;20.980;2023-05-10T08:22:20;100847.59;;;21.19;19.54
17607;BME280;69222;52.242;20.980;2023-05-10T08:24:49;100847.00;;;20.92;21.75
17607;BME280;69222;52.242;20.980;2023-05-10T08:27:17;100843.22;;;20.34;19.72
17607;BME280;69222;52.242;20.980;2023-05-10T08:29:45;100855.09;;;19.97;20.09
17607;BME280;69222;52.242;20.980;2023-05-10T08:32:17;100843.72;;;19.74;20.35
17607;BME280;69222;52.242;20.980;2023-05-10T08:34:45;100838.94;;;19.62;20.92
17607;BME280;69222;52.242;20.980;2023-05-10T08:37:13;100842.31;;;19.41;20.47
17607;BME280;69222;52.242;20.980;2023-05-10T08:39:41;100848.84;;;19.27;20.44
17607;BME280;69222;52.242;20.980;2023-05-10T08:42:09;100845.47;;;18.99;20.27
17607;BME280;69222;52.242;20.980;2023-05-10T08:44:38;100844.28;;;18.54;20.58
17607;BME280;69222;52.242;20.980;2023-05-10T08:47:06;100846.13;;;18.51;21.51
17607;BME280;69222;52.242;20.980;2023-05-10T08:49:38;100856.28;;;18.60;21.40
17607;BME280;69222;52.242;20.980;2023-05-10T08:52:07;100843.03;;;18.66;20.62
17607;BME280;69222;52.242;20.980;2023-05-10T08:54:36;100854.34;;;18.39;20.72
17607;BME280;69222;52.242;20.980;2023-05-10T08:57:04;100848.16;;;18.13;21.01
17607;BME280;69222;52.242;20.980;2023-05-10T08:59:32;100848.97;;;18.15;21.09
17607;BME280;69222;52.242;20.980;2023-05-10T09:02:00;100847.78;;;18.25;21.31
17607;BME280;69222;52.242;20.980;2023-05-10T09:04:29;100841.31;;;18.39;21.62
17607;BME280;69222;52.242;20.980;2023-05-10T09:06:58;100833.75;;;18.57;21.64
17607;BME280;69222;52.242;20.980;2023-05-10T09:09:27;100832.50;;;18.71;20.79
17607;BME280;69222;52.242;20.980;2023-05-10T09:11:56;100834.34;;;18.94;21.17
17607;BME280;69222;52.242;20.980;2023-05-10T09:14:24;100829.16;;;19.17;21.13
17607;BME280;69222;52.242;20.980;2023-05-10T09:16:53;100826.28;;;19.50;21.06
17607;BME280;69222;52.242;20.980;2023-05-10T09:19:22;100823.72;;;19.97;20.37
17607;BME280;69222;52.242;20.980;2023-05-10T09:21:50;100817.16;;;20.74;19.31
17607;BME280;69222;52.242;20.980;2023-05-10T09:24:25;100813.03;;;21.30;18.20
17607;BME280;69222;52.242;20.980;2023-05-10T09:26:53;100803.31;;;22.47;17.94
17607;BME280;69222;52.242;20.980;2023-05-10T09:29:20;100808.88;;;23.94;16.38
17607;BME280;69222;52.242;20.980;2023-05-10T09:31:49;100802.91;;;24.84;14.61
17607;BME280;69222;52.242;20.980;2023-05-10T09:34:20;100817.09;;;26.12;13.79
17607;BME280;69222;52.242;20.980;2023-05-10T09:36:52;100818.25;;;26.62;13.08
17607;BME280;69222;52.242;20.980;2023-05-10T09:39:30;100806.63;;;26.64;13.18
17607;BME280;69222;52.242;20.980;2023-05-10T09:41:58;100814.03;;;27.37;13.04
17607;BME280;69222;52.242;20.980;2023-05-10T09:44:27;100804.63;;;28.20;12.74
17607;BME280;69222;52.242;20.980;2023-05-10T09:46:55;100797.78;;;29.11;11.86
17607;BME280;69222;52.242;20.980;2023-05-10T09:49:23;100797.13;;;30.09;11.71
17607;BME280;69222;52.242;20.980;2023-05-10T09:52:01;100803.06;;;30.45;10.40
17607;BME280;69222;52.242;20.980;2023-05-10T09:54:31;100806.94;;;30.41;10.54
17607;BME280;69222;52.242;20.980;2023-05-10T09:56:59;100790.38;;;30.69;10.66
17607;BME280;69222;52.242;20.980;2023-05-10T09:59:28;100802.34;;;30.96;10.54
17607;BME280;69222;52.242;20.980;2023-05-10T10:01:57;100788.34;;;31.45;11.18
17607;BME280;69222;52.242;20.980;2023-05-10T10:04:26;100783.72;;;32.07;10.71
17607;BME280;69222;52.242;20.980;2023-05-10T10:07:01;100776.28;;;32.79;10.12
17607;BME280;69222;52.242;20.980;2023-05-10T10:09:31;100785.53;;;33.41;9.55
17607;BME280;69222;52.242;20.980;2023-05-10T10:12:00;100790.09;;;33.21;8.69
17607;BME280;69222;52.242;20.980;2023-05-10T10:14:28;100782.59;;;32.29;9.09
17607;BME280;69222;52.242;20.980;2023-05-10T10:16:57;100774.59;;;31.19;9.66
17607;BME280;69222;52.242;20.980;2023-05-10T10:19:32;100769.38;;;31.18;10.23
17607;BME280;69222;52.242;20.980;2023-05-10T10:22:00;100768.28;;;31.41;9.63
17607;BME280;69222;52.242;20.980;2023-05-10T10:24:30;100786.38;;;32.07;9.24
17607;BME280;69222;52.242;20.980;2023-05-10T10:27:04;100778.69;;;31.23;9.91
17607;BME280;69222;52.242;20.980;2023-05-10T10:29:39;100780.13;;;29.89;10.82
17607;BME280;69222;52.242;20.980;2023-05-10T10:32:17;100765.03;;;30.33;11.21
17607;BME280;69222;52.242;20.980;2023-05-10T10:34:47;100766.00;;;30.64;10.24
17607;BME280;69222;52.242;20.980;2023-05-10T10:37:15;100756.94;;;31.49;10.97
17607;BME280;69222;52.242;20.980;2023-05-10T10:39:47;100759.41;;;30.79;10.27
17607;BME280;69222;52.242;20.980;2023-05-10T10:42:47;100766.06;;;30.95;9.72
17607;BME280;69222;52.242;20.980;2023-05-10T10:45:16;100761.09;;;30.48;10.34
17607;BME280;69222;52.242;20.980;2023-05-10T10:47:44;100758.44;;;30.27;10.79
17607;BME280;69222;52.242;20.980;2023-05-10T10:50:13;100759.81;;;30.43;10.29
17607;BME280;69222;52.242;20.980;2023-05-10T10:52:43;100746.00;;;29.51;10.00
17607;BME280;69222;52.242;20.980;2023-05-10T10:55:14;100757.63;;;27.74;12.01
17607;BME280;69222;52.242;20.980;2023-05-10T10:57:45;100757.53;;;27.75;11.91
17607;BME280;69222;52.242;20.980;2023-05-10T11:00:25;100739.28;;;27.83;11.86
17607;BME280;69222;52.242;20.980;2023-05-10T11:02:56;100743.75;;;28.07;12.00
17607;BME280;69222;52.242;20.980;2023-05-10T11:05:46;100743.97;;;28.52;11.62
17607;BME280;69222;52.242;20.980;2023-05-10T11:08:20;100748.19;;;28.30;10.90
17607;BME280;69222;52.242;20.980;2023-05-10T11:11:03;100744.53;;;28.20;11.96
17607;BME280;69222;52.242;20.980;2023-05-10T11:13:36;100751.44;;;28.47;11.65
17607;BME280;69222;52.242;20.980;2023-05-10T11:16:16;100750.38;;;28.72;11.14
17607;BME280;69222;52.242;20.980;2023-05-10T11:18:57;100737.28;;;28.93;11.90
17607;BME280;69222;52.242;20.980;2023-05-10T11:21:26;100742.34;;;28.14;11.64
17607;BME280;69222;52.242;20.980;2023-05-10T11:23:55;100743.69;;;25.90;12.68
17607;BME280;69222;52.242;20.980;2023-05-10T11:26:27;100738.66;;;25.15;13.96
17607;BME280;69222;52.242;20.980;2023-05-10T11:28:57;100748.41;;;24.54;14.50
17607;BME280;69222;52.242;20.980;2023-05-10T11:31:27;100738.91;;;24.36;15.37
17607;BME280;69222;52.242;20.980;2023-05-10T11:33:57;100741.25;;;24.42;15.10
17607;BME280;69222;52.242;20.980;2023-05-10T11:36:27;100726.84;;;24.02;15.53
17607;BME280;69222;52.242;20.980;2023-05-10T11:38:56;100736.25;;;23.58;15.97
17607;BME280;69222;52.242;20.980;2023-05-10T11:41:29;100752.78;;;22.25;16.74
17607;BME280;69222;52.242;20.980;2023-05-10T11:43:58;100740.47;;;21.89;17.15
17607;BME280;69222;52.242;20.980;2023-05-10T11:46:27;100741.69;;;21.63;17.99
17607;BME280;69222;52.242;20.980;2023-05-10T11:48:58;100739.91;;;21.63;18.25
17607;BME280;69222;52.242;20.980;2023-05-10T11:51:28;100737.56;;;21.57;18.12
17607;BME280;69222;52.242;20.980;2023-05-10T11:53:56;100744.16;;;21.47;18.53
17607;BME280;69222;52.242;20.980;2023-05-10T11:56:26;100726.19;;;20.98;18.50
17607;BME280;69222;52.242;20.980;2023-05-10T11:58:55;100739.56;;;20.30;19.71
17607;BME280;69222;52.242;20.980;2023-05-10T12:01:24;100736.63;;;20.37;19.72
17607;BME280;69222;52.242;20.980;2023-05-10T12:03:53;100741.56;;;20.45;19.68
17607;BME280;69222;52.242;20.980;2023-05-10T12:06:26;100744.94;;;20.47;19.63
17607;BME280;69222;52.242;20.980;2023-05-10T12:08:54;100744.59;;;20.34;19.67
17607;BME280;69222;52.242;20.980;2023-05-10T12:11:26;100732.19;;;19.73;20.29
17607;BME280;69222;52.242;20.980;2023-05-10T12:13:55;100745.47;;;19.44;20.62
17607;BME280;69222;52.242;20.980;2023-05-10T12:16:24;100746.28;;;19.22;20.74
17607;BME280;69222;52.242;20.980;2023-05-10T12:18:57;100731.75;;;19.14;20.57
17607;BME280;69222;52.242;20.980;2023-05-10T12:21:27;100735.38;;;19.11;21.31
17607;BME280;69222;52.242;20.980;2023-05-10T12:23:59;100728.78;;;18.99;21.36
17607;BME280;69222;52.242;20.980;2023-05-10T12:26:30;100740.44;;;19.14;21.62
17607;BME280;69222;52.242;20.980;2023-05-10T12:29:12;100729.13;;;19.39;20.82
17607;BME280;69222;52.242;20.980;2023-05-10T12:31:52;100727.91;;;19.24;20.67
17607;BME280;69222;52.242;20.980;2023-05-10T12:34:25;100732.28;;;19.23;21.49
17607;BME280;69222;52.242;20.980;2023-05-10T12:36:54;100737.53;;;19.23;21.18
17607;BME280;69222;52.242;20.980;2023-05-10T12:39:22;100728.44;;;19.34;21.89
17607;BME280;69222;52.242;20.980;2023-05-10T12:41:52;100727.13;;;19.45;20.87
17607;BME280;69222;52.242;20.980;2023-05-10T12:44:20;100727.75;;;19.52;20.70
17607;BME280;69222;52.242;20.980;2023-05-10T12:46:48;100736.84;;;19.42;20.75
17607;BME280;69222;52.242;20.980;2023-05-10T12:49:16;100722.97;;;19.40;21.10
17607;BME280;69222;52.242;20.980;2023-05-10T12:51:45;100706.97;;;19.49;20.55
17607;BME280;69222;52.242;20.980;2023-05-10T12:54:13;100719.22;;;19.47;21.18
17607;BME280;69222;52.242;20.980;2023-05-10T12:56:41;100712.56;;;19.62;21.80